ADDS METAR Data INFO
IDs: Format: Raw Decoded Include TAF

Data at: 0053 UTC 22 Oct 2017

KRIC 212354Z 12005KT 10SM BKN300 17/12 A3035 RMK AO2 SLP282 T01720117 10256 20172 53014 $
KRIC 212254Z 10005KT 10SM BKN300 19/12 A3033 RMK AO2 SLP275 T01890122 $
KRIC 212154Z 10004KT 10SM BKN300 22/11 A3032 RMK AO2 SLP272 T02170111 $
KRIC 212054Z VRB03KT 10SM BKN300 24/08 A3031 RMK AO2 SLP268 T02440083 55001 $
KRIC 211954Z 09004KT 10SM BKN300 24/09 A3031 RMK AO2 SLP267 T02440094 $
KRIC 211854Z 12005KT 10SM BKN300 25/09 A3031 RMK AO2 SLP266 T02500089 $
KRIC 211754Z VRB03KT 10SM BKN300 25/09 A3031 RMK AO2 SLP268 T02500089 10250 20106 58013 $
KRIC 211654Z 14003KT 10SM BKN300 24/08 A3034 RMK AO2 SLP277 T02390083 $
KRIC 211554Z 13003KT 10SM SCT300 22/09 A3035 RMK AO2 SLP283 T02220094 $
KRIC 211454Z 00000KT 10SM FEW300 21/11 A3035 RMK AO2 SLP282 T02060111 50010 $
KRIC 211354Z 03003KT 10SM FEW300 18/11 A3035 RMK AO2 SLP283 T01830106 $
KRIC 211254Z 00000KT 10SM SCT300 15/11 A3034 RMK AO2 SLP280 T01500111 $
KRIC 211154Z 36003KT 9SM SCT300 11/09 A3032 RMK AO2 SLP272 T01060094 10117 20100 53017 $
KRIC 211054Z 00000KT 10SM SCT300 10/09 A3030 RMK AO2 SLP264 T01000094 $
KRIC 210954Z 00000KT 9SM CLR 10/10 A3028 RMK AO2 SLP259 T01000100 $
KRIC 210854Z 00000KT 9SM CLR 11/10 A3027 RMK AO2 SLP255 T01060100 53001 $
KRIC 210754Z 00000KT 10SM CLR 11/10 A3026 RMK AO2 SLP250 T01060100 $
KRIC 210654Z 00000KT 8SM CLR 11/11 A3027 RMK AO2 SLP255 T01110106 $
KRIC 210554Z 00000KT 9SM CLR 12/11 A3027 RMK AO2 SLP253 T01170111 10178 20117 51006
KRIC 210454Z 00000KT 10SM CLR 13/12 A3027 RMK AO2 SLP253 T01280117 402670067
KRIC 210354Z 00000KT 10SM CLR 13/12 A3026 RMK AO2 SLP250 T01330122
KRIC 210254Z 18003KT 10SM CLR 13/12 A3025 RMK AO2 SLP248 T01330117 53013
KRIC 210154Z 00000KT 10SM CLR 16/13 A3023 RMK AO2 SLP242 T01560128
KRIC 210054Z 00000KT 10SM CLR 18/13 A3022 RMK AO2 SLP239 T01780128
KRIC 202354Z 00000KT 10SM FEW300 18/13 A3021 RMK AO2 SLP235 T01780133 10267 20178 53011
KRIC 202254Z 36003KT 10SM FEW300 20/13 A3019 RMK AO2 SLP229 T02000128
KRIC 202154Z 34005KT 10SM FEW300 23/12 A3018 RMK AO2 SLP226 T02330117
KRIC 202054Z 36008KT 10SM FEW050 FEW300 25/12 A3018 RMK AO2 SLP224 T02500117 56011
KRIC 201954Z 36006KT 10SM FEW055 FEW300 26/11 A3018 RMK AO2 SLP225 T02560111
KRIC 201854Z 36007KT 10SM FEW055 BKN300 26/12 A3020 RMK AO2 SLP229 T02560117
KRIC 201754Z VRB05KT 10SM SCT300 26/12 A3021 RMK AO2 SLP235 T02560117 10256 20083 58018
KRIC 201654Z 03008KT 10SM SCT300 24/11 A3024 RMK AO2 SLP243 T02440111
KRIC 201554Z 01009KT 10SM FEW300 23/11 A3026 RMK AO2 SLP249 T02330106
KRIC 201454Z 35005KT 10SM FEW300 22/09 A3026 RMK AO2 SLP252 T02170094 51011
KRIC 201354Z 00000KT 10SM FEW300 17/11 A3026 RMK AO2 SLP251 T01720106
KRIC 201254Z 32003KT 10SM SCT300 13/10 A3025 RMK AO2 SLP248 T01330100